createdAt,value
2023-03-03T00:01:38.571Z,54.62
2023-03-03T00:04:08.970Z,54.85
2023-03-03T00:06:39.483Z,55.65
2023-03-03T00:09:09.779Z,54.87
2023-03-03T00:11:40.475Z,55.30
2023-03-03T00:14:33.974Z,55.84
2023-03-03T00:17:16.015Z,53.65
2023-03-03T00:19:48.816Z,53.04
2023-03-03T00:22:28.418Z,53.17
2023-03-03T00:25:02.956Z,53.11
2023-03-03T00:27:37.399Z,52.68
2023-03-03T00:30:18.958Z,53.11
2023-03-03T00:32:51.683Z,52.94
2023-03-03T00:35:36.946Z,52.58
2023-03-03T00:38:18.009Z,52.60
2023-03-03T00:40:49.310Z,52.74
2023-03-03T00:43:22.659Z,52.51
2023-03-03T00:45:57.429Z,52.84
2023-03-03T00:48:40.197Z,52.39
2023-03-03T00:51:20.024Z,53.00
2023-03-03T00:53:50.757Z,52.92
2023-03-03T00:56:24.335Z,52.51
2023-03-03T00:58:55.740Z,52.91
2023-03-03T01:01:27.157Z,52.82
2023-03-03T01:03:57.733Z,53.05
2023-03-03T01:06:28.464Z,52.48
2023-03-03T01:09:00.831Z,52.79
2023-03-03T01:11:31.146Z,53.02
2023-03-03T01:14:01.388Z,52.89
2023-03-03T01:16:31.917Z,52.56
2023-03-03T01:19:02.753Z,52.48
2023-03-03T01:21:33.012Z,52.96
2023-03-03T01:24:03.886Z,53.09
2023-03-03T01:26:34.075Z,52.98
2023-03-03T01:29:04.266Z,52.87
2023-03-03T01:31:34.671Z,53.00
2023-03-03T01:34:04.925Z,52.81
2023-03-03T01:36:36.428Z,52.36
2023-03-03T01:39:06.771Z,52.78
2023-03-03T01:41:37.400Z,52.95
2023-03-03T01:44:07.596Z,52.48
2023-03-03T01:46:48.669Z,52.76
2023-03-03T01:49:22.579Z,53.06
2023-03-03T01:51:55.992Z,52.61
2023-03-03T01:54:30.084Z,52.84
2023-03-03T01:57:03.083Z,52.42
2023-03-03T01:59:38.261Z,52.84
2023-03-03T02:02:09.809Z,52.60
2023-03-03T02:04:40.611Z,52.84
2023-03-03T02:07:13.083Z,52.69
2023-03-03T02:09:46.405Z,52.33
2023-03-03T02:12:19.923Z,52.20
2023-03-03T02:14:50.064Z,52.50
2023-03-03T02:17:21.334Z,52.07
2023-03-03T02:19:57.347Z,52.22
2023-03-03T02:22:43.321Z,52.02
2023-03-03T02:25:17.574Z,51.91
2023-03-03T02:27:47.733Z,52.10
2023-03-03T02:30:20.741Z,52.41
2023-03-03T02:32:51.205Z,51.97
2023-03-03T02:35:24.355Z,51.84
2023-03-03T02:37:54.721Z,52.03
2023-03-03T02:40:26.142Z,51.56
2023-03-03T02:42:57.718Z,52.03
2023-03-03T02:45:28.085Z,51.48
2023-03-03T02:47:58.451Z,51.69
2023-03-03T02:50:28.891Z,51.87
2023-03-03T02:52:59.245Z,51.92
2023-03-03T02:55:40.495Z,52.02
2023-03-03T02:58:10.658Z,51.65
2023-03-03T03:00:41.010Z,51.61
2023-03-03T03:03:11.465Z,51.37
2023-03-03T03:05:42.960Z,51.90
2023-03-03T03:08:13.791Z,51.85
2023-03-03T03:10:44.020Z,51.34
2023-03-03T03:13:14.420Z,51.23
2023-03-03T03:15:49.858Z,51.34
2023-03-03T03:18:20.540Z,51.91
2023-03-03T03:20:52.433Z,51.54
2023-03-03T03:23:25.472Z,51.72
2023-03-03T03:25:55.802Z,51.10
2023-03-03T03:28:30.457Z,51.51
2023-03-03T03:31:00.711Z,51.19
2023-03-03T03:33:30.889Z,51.64
2023-03-03T03:36:03.002Z,51.65
2023-03-03T03:38:33.218Z,51.56
2023-03-03T03:41:03.514Z,51.02
2023-03-03T03:43:33.616Z,51.40
2023-03-03T03:46:05.131Z,51.11
2023-03-03T03:48:36.550Z,51.27
2023-03-03T03:51:08.544Z,51.03
2023-03-03T03:53:38.793Z,51.01
2023-03-03T03:56:09.386Z,50.86
2023-03-03T03:58:40.032Z,50.39
2023-03-03T04:01:12.663Z,50.55
2023-03-03T04:03:48.386Z,50.53
2023-03-03T04:06:22.381Z,50.30
2023-03-03T04:08:53.254Z,50.31
2023-03-03T04:11:25.664Z,50.38
2023-03-03T04:13:56.400Z,50.60
2023-03-03T04:16:26.670Z,50.67
2023-03-03T04:18:56.839Z,50.00
2023-03-03T04:21:27.715Z,50.28
2023-03-03T04:24:00.697Z,49.82
2023-03-03T04:26:33.441Z,49.78
2023-03-03T04:29:06.336Z,50.20
2023-03-03T04:31:37.001Z,49.78
2023-03-03T04:34:09.685Z,49.93
2023-03-03T04:36:40.398Z,49.38
2023-03-03T04:39:10.667Z,49.41
2023-03-03T04:41:41.584Z,49.25
2023-03-03T04:44:12.401Z,49.46
2023-03-03T04:46:42.686Z,49.47
2023-03-03T04:49:13.566Z,49.61
2023-03-03T04:51:45.846Z,49.21
2023-03-03T04:54:16.905Z,49.17
2023-03-03T04:56:47.332Z,49.91
2023-03-03T04:59:17.635Z,49.51
2023-03-03T05:01:48.107Z,49.35
2023-03-03T05:04:18.906Z,49.43
2023-03-03T05:06:49.145Z,49.71
2023-03-03T05:09:20.346Z,49.79
2023-03-03T05:11:50.560Z,49.26
2023-03-03T05:14:22.114Z,49.72
2023-03-03T05:16:52.798Z,49.74
2023-03-03T05:19:23.007Z,49.50
2023-03-03T05:21:53.305Z,49.40
2023-03-03T05:24:24.610Z,49.29
2023-03-03T05:26:55.377Z,49.15
2023-03-03T05:29:26.040Z,49.30
2023-03-03T05:31:56.262Z,49.54
2023-03-03T05:34:26.516Z,49.60
2023-03-03T05:36:56.725Z,49.64
2023-03-03T05:39:26.891Z,49.62
2023-03-03T05:41:57.525Z,49.29
2023-03-03T05:44:28.996Z,49.28
2023-03-03T05:47:00.492Z,49.17
2023-03-03T05:49:30.763Z,49.50
2023-03-03T05:52:01.895Z,49.16
2023-03-03T05:54:32.508Z,49.24
2023-03-03T05:57:03.218Z,49.64
2023-03-03T05:59:33.511Z,49.55
2023-03-03T06:02:04.278Z,49.48
2023-03-03T06:04:34.438Z,49.38
2023-03-03T06:07:04.667Z,49.37
2023-03-03T06:09:35.235Z,49.07
2023-03-03T06:12:05.480Z,49.23
2023-03-03T06:14:35.789Z,49.41
2023-03-03T06:17:07.615Z,49.28
2023-03-03T06:19:38.889Z,49.18
2023-03-03T06:22:09.483Z,49.16
2023-03-03T06:24:40.184Z,49.22
2023-03-03T06:27:11.498Z,49.32
2023-03-03T06:29:42.253Z,49.23
2023-03-03T06:32:13.034Z,49.26
2023-03-03T06:34:43.282Z,49.19
2023-03-03T06:37:13.428Z,49.07
2023-03-03T06:39:43.921Z,49.27
2023-03-03T06:42:14.361Z,49.38
2023-03-03T06:44:44.717Z,49.33
2023-03-03T06:47:14.944Z,49.22
2023-03-03T06:49:45.148Z,48.92
2023-03-03T06:52:16.943Z,49.35
2023-03-03T06:54:47.389Z,49.00
2023-03-03T06:57:22.262Z,48.92
2023-03-03T06:59:55.075Z,48.86
2023-03-03T07:02:25.731Z,49.12
2023-03-03T07:04:58.596Z,49.04
2023-03-03T07:07:28.884Z,49.27
2023-03-03T07:09:59.221Z,48.99
2023-03-03T07:12:31.942Z,49.17
2023-03-03T07:15:08.384Z,48.96
2023-03-03T07:17:41.836Z,48.77
2023-03-03T07:20:22.733Z,49.13
2023-03-03T07:22:53.687Z,49.09
2023-03-03T07:25:34.010Z,48.74
2023-03-03T07:28:30.350Z,48.95
2023-03-03T07:31:00.612Z,49.09
2023-03-03T07:33:33.768Z,48.87
2023-03-03T07:36:05.473Z,49.03
2023-03-03T07:38:51.345Z,48.98
2023-03-03T07:41:27.842Z,48.89
2023-03-03T07:44:02.143Z,48.96
2023-03-03T07:46:38.359Z,48.77
2023-03-03T07:49:23.047Z,48.80
2023-03-03T07:51:55.189Z,48.85
2023-03-03T07:54:27.631Z,48.61
2023-03-03T07:57:02.876Z,48.53
2023-03-03T07:59:37.048Z,48.38
2023-03-03T08:02:11.741Z,48.51
2023-03-03T08:04:54.202Z,48.42
2023-03-03T08:07:25.102Z,48.37
2023-03-03T08:09:55.329Z,48.16
2023-03-03T08:12:41.558Z,48.24
2023-03-03T08:15:24.813Z,48.35
2023-03-03T08:17:56.310Z,48.06
2023-03-03T08:20:48.733Z,47.94
2023-03-03T08:23:20.335Z,48.08
2023-03-03T08:25:51.499Z,48.19
2023-03-03T08:28:22.519Z,48.44
2023-03-03T08:31:02.636Z,48.19
2023-03-03T08:33:39.442Z,48.05
2023-03-03T08:36:10.109Z,48.15
2023-03-03T08:38:40.808Z,47.98
2023-03-03T08:41:11.500Z,48.22
2023-03-03T08:43:41.951Z,48.10
2023-03-03T08:46:13.262Z,48.04
2023-03-03T08:48:43.870Z,48.02
2023-03-03T08:51:14.050Z,47.97
2023-03-03T08:53:44.252Z,47.98
2023-03-03T08:56:14.538Z,47.62
2023-03-03T08:59:01.820Z,47.58
2023-03-03T09:01:33.687Z,47.95
2023-03-03T09:04:03.900Z,47.83
2023-03-03T09:06:34.256Z,47.69
2023-03-03T09:09:04.689Z,47.76
2023-03-03T09:11:35.582Z,47.67
2023-03-03T09:14:12.240Z,47.79
2023-03-03T09:16:47.864Z,47.69
2023-03-03T09:19:20.784Z,47.25
2023-03-03T09:21:52.750Z,48.34
2023-03-03T09:24:28.006Z,48.62
2023-03-03T09:27:00.364Z,49.15
2023-03-03T09:29:32.142Z,49.73
2023-03-03T09:32:04.045Z,49.94
2023-03-03T09:34:37.128Z,50.12
2023-03-03T09:37:27.377Z,50.01
2023-03-03T09:39:58.930Z,50.30
2023-03-03T09:42:40.177Z,50.16
2023-03-03T09:45:36.370Z,50.42
2023-03-03T09:48:14.806Z,50.50
2023-03-03T09:51:00.994Z,50.41
2023-03-03T09:53:31.178Z,50.73
2023-03-03T09:56:01.631Z,50.68
2023-03-03T09:58:47.155Z,50.21
2023-03-03T10:01:26.730Z,50.70
2023-03-03T10:04:15.615Z,50.51
2023-03-03T10:07:17.942Z,50.63
2023-03-03T10:09:51.067Z,50.57
2023-03-03T10:12:21.212Z,50.35
2023-03-03T10:14:54.184Z,50.63
2023-03-03T10:17:30.209Z,50.21
2023-03-03T10:20:06.229Z,50.49
2023-03-03T10:22:36.479Z,49.93
2023-03-03T10:25:22.022Z,49.54
2023-03-03T10:27:58.169Z,49.76
2023-03-03T10:30:44.086Z,50.45
2023-03-03T10:33:31.452Z,50.97
2023-03-03T10:36:07.518Z,52.06
2023-03-03T10:38:47.515Z,52.48
2023-03-03T10:41:36.328Z,52.76
2023-03-03T10:44:06.992Z,52.86
2023-03-03T10:46:37.755Z,53.04
2023-03-03T10:49:23.857Z,53.58
2023-03-03T10:52:20.455Z,54.84
2023-03-03T10:54:53.939Z,55.31
2023-03-03T10:57:42.309Z,54.88
2023-03-03T11:00:24.122Z,53.82
2023-03-03T11:02:55.083Z,52.80
2023-03-03T11:05:45.644Z,52.51
2023-03-03T11:08:21.968Z,52.11
2023-03-03T11:11:07.726Z,52.32
2023-03-03T11:13:48.581Z,52.06
2023-03-03T11:16:19.344Z,51.90
2023-03-03T11:19:05.106Z,51.98
2023-03-03T11:21:42.054Z,51.70
2023-03-03T11:24:38.235Z,51.82
2023-03-03T11:27:17.812Z,51.89
2023-03-03T11:30:05.575Z,51.93
2023-03-03T11:32:43.753Z,51.94
2023-03-03T11:35:20.081Z,51.82
2023-03-03T11:37:56.273Z,51.83
2023-03-03T11:40:50.581Z,51.81
2023-03-03T11:43:43.591Z,52.12
2023-03-03T11:46:16.784Z,54.04
2023-03-03T11:48:47.434Z,54.95
2023-03-03T11:51:24.508Z,55.77
2023-03-03T11:54:03.609Z,55.78
2023-03-03T11:56:33.929Z,56.10
2023-03-03T11:59:04.430Z,56.14
2023-03-03T12:01:52.958Z,56.01
2023-03-03T12:04:32.562Z,56.38
2023-03-03T12:07:21.184Z,56.12
2023-03-03T12:10:10.977Z,56.11
2023-03-03T12:12:44.991Z,56.00
2023-03-03T12:15:29.552Z,55.97
2023-03-03T12:18:08.670Z,56.10
2023-03-03T12:20:44.811Z,56.15
2023-03-03T12:23:17.942Z,56.43
2023-03-03T12:26:07.010Z,56.26
2023-03-03T12:28:44.859Z,55.78
2023-03-03T12:31:24.269Z,55.43
2023-03-03T12:34:05.082Z,55.70
2023-03-03T12:36:45.873Z,54.89
2023-03-03T12:39:33.765Z,55.08
2023-03-03T12:42:29.125Z,54.65
2023-03-03T12:45:09.942Z,54.77
2023-03-03T12:47:41.522Z,54.63
2023-03-03T12:50:12.971Z,55.08
2023-03-03T12:52:59.234Z,54.86
2023-03-03T12:55:38.404Z,55.90
2023-03-03T12:58:14.966Z,54.62
2023-03-03T13:00:58.088Z,52.50
2023-03-03T13:03:31.942Z,50.67
2023-03-03T13:06:08.305Z,49.27
2023-03-03T13:08:47.848Z,48.04
2023-03-03T13:11:42.332Z,46.89
2023-03-03T13:14:39.797Z,46.61
2023-03-03T13:17:46.611Z,46.12
2023-03-03T13:20:21.664Z,45.98
2023-03-03T13:22:54.928Z,45.40
2023-03-03T13:25:25.803Z,45.68
2023-03-03T13:28:03.022Z,45.49
2023-03-03T13:30:35.975Z,45.68
2023-03-03T13:33:24.711Z,45.32
2023-03-03T13:36:04.196Z,45.48
2023-03-03T13:38:42.543Z,44.68
2023-03-03T13:41:51.551Z,44.26
2023-03-03T13:44:26.951Z,43.82
2023-03-03T13:47:05.738Z,43.87
2023-03-03T13:49:36.730Z,43.16
2023-03-03T13:52:22.884Z,42.95
2023-03-03T13:54:58.890Z,42.51
2023-03-03T13:57:32.254Z,42.74
2023-03-03T14:00:02.770Z,42.48
2023-03-03T14:02:42.044Z,44.19
2023-03-03T14:05:12.715Z,44.17
2023-03-03T14:08:03.057Z,44.17
2023-03-03T14:10:41.808Z,43.59
2023-03-03T14:13:18.605Z,44.20
2023-03-03T14:15:55.798Z,43.34
2023-03-03T14:18:30.826Z,42.74
2023-03-03T14:21:09.844Z,42.86
2023-03-03T14:23:58.882Z,42.46
2023-03-03T14:26:29.343Z,42.41
2023-03-03T14:29:18.398Z,42.23
2023-03-03T14:31:49.155Z,41.82
2023-03-03T14:34:25.545Z,41.72
2023-03-03T14:37:01.241Z,41.54
2023-03-03T14:39:36.120Z,40.82
2023-03-03T14:42:17.525Z,41.13
2023-03-03T14:44:48.037Z,40.94
2023-03-03T14:47:21.357Z,40.98
2023-03-03T14:49:52.604Z,40.77
2023-03-03T14:52:25.275Z,40.72
2023-03-03T14:54:57.153Z,40.61
2023-03-03T14:57:57.856Z,40.59
2023-03-03T15:00:30.852Z,40.14
2023-03-03T15:03:04.719Z,40.70
2023-03-03T15:05:35.919Z,39.96
2023-03-03T15:08:06.333Z,40.18
2023-03-03T15:10:38.354Z,39.96
2023-03-03T15:13:24.250Z,39.33
2023-03-03T15:16:02.906Z,39.04
2023-03-03T15:18:35.084Z,39.59
2023-03-03T15:21:09.543Z,39.38
2023-03-03T15:23:46.704Z,38.85
2023-03-03T15:26:22.820Z,38.93
2023-03-03T15:29:08.112Z,38.96
2023-03-03T15:31:38.833Z,39.43
2023-03-03T15:34:27.782Z,38.79
2023-03-03T15:36:58.754Z,38.85
2023-03-03T15:39:35.305Z,39.02
2023-03-03T15:42:09.912Z,39.29
2023-03-03T15:44:50.158Z,39.12
2023-03-03T15:47:23.887Z,38.72
2023-03-03T15:49:54.300Z,38.66
2023-03-03T15:52:42.904Z,39.03
2023-03-03T15:55:31.276Z,39.09
2023-03-03T15:58:01.600Z,38.95
2023-03-03T16:00:37.177Z,38.89
2023-03-03T16:03:13.304Z,39.00
2023-03-03T16:05:51.973Z,38.67
2023-03-03T16:08:29.261Z,38.93
2023-03-03T16:10:59.473Z,39.09
2023-03-03T16:13:40.286Z,39.10
2023-03-03T16:16:12.260Z,38.99
2023-03-03T16:18:48.683Z,38.95
2023-03-03T16:22:11.182Z,39.41
2023-03-03T16:24:47.204Z,39.02
2023-03-03T16:27:43.657Z,39.19
2023-03-03T16:30:25.612Z,39.44
2023-03-03T16:33:06.331Z,39.38
2023-03-03T16:35:59.507Z,39.41
2023-03-03T16:38:30.616Z,39.01
2023-03-03T16:41:02.687Z,39.12
2023-03-03T16:44:00.540Z,39.02
2023-03-03T16:46:33.813Z,38.87
2023-03-03T16:49:21.067Z,39.00
2023-03-03T16:51:54.751Z,38.71
2023-03-03T16:54:33.872Z,38.88
2023-03-03T16:57:04.236Z,38.62
2023-03-03T16:59:58.266Z,38.71
2023-03-03T17:02:31.507Z,38.90
2023-03-03T17:05:06.576Z,38.94
2023-03-03T17:07:39.762Z,39.05
2023-03-03T17:10:22.354Z,38.92
2023-03-03T17:13:10.844Z,39.07
2023-03-03T17:15:47.228Z,39.12
2023-03-03T17:18:49.954Z,39.30
2023-03-03T17:21:34.126Z,39.26
2023-03-03T17:24:12.328Z,39.32
2023-03-03T17:27:02.667Z,39.61
2023-03-03T17:29:39.624Z,39.77
2023-03-03T17:32:42.405Z,39.59
2023-03-03T17:35:28.544Z,39.61
2023-03-03T17:38:04.496Z,39.73
2023-03-03T17:40:49.917Z,39.56
2023-03-03T17:43:40.119Z,39.67
2023-03-03T17:46:19.862Z,39.93
2023-03-03T17:48:53.392Z,39.79
2023-03-03T17:51:26.793Z,40.10
2023-03-03T17:54:06.073Z,39.60
2023-03-03T17:56:48.824Z,40.21
2023-03-03T17:59:37.632Z,40.19
2023-03-03T18:02:07.699Z,40.13
2023-03-03T18:04:57.173Z,40.16
2023-03-03T18:07:46.347Z,40.10
2023-03-03T18:10:28.286Z,40.22
2023-03-03T18:13:17.099Z,40.08
2023-03-03T18:16:11.914Z,39.89
2023-03-03T18:18:54.268Z,40.25
2023-03-03T18:21:26.379Z,40.16
2023-03-03T18:24:15.969Z,40.20
2023-03-03T18:26:46.241Z,40.36
2023-03-03T18:29:21.441Z,39.88
2023-03-03T18:31:54.613Z,40.21
2023-03-03T18:34:41.283Z,40.06
2023-03-03T18:37:29.962Z,39.87
2023-03-03T18:40:05.988Z,40.04
2023-03-03T18:42:38.845Z,39.99
2023-03-03T18:45:32.073Z,39.99
2023-03-03T18:48:02.813Z,40.36
2023-03-03T18:50:53.946Z,40.28
2023-03-03T18:53:29.197Z,40.39
2023-03-03T18:56:00.406Z,40.47
2023-03-03T18:58:33.324Z,40.55
2023-03-03T19:01:15.474Z,40.89
2023-03-03T19:03:48.558Z,40.87
2023-03-03T19:06:38.795Z,40.89
2023-03-03T19:09:09.092Z,40.93
2023-03-03T19:11:48.273Z,40.69
2023-03-03T19:14:27.900Z,40.78
2023-03-03T19:17:17.763Z,41.13
2023-03-03T19:20:06.238Z,41.10
2023-03-03T19:22:44.631Z,41.24
2023-03-03T19:25:14.836Z,41.39
2023-03-03T19:27:49.728Z,41.33
2023-03-03T19:30:48.968Z,40.96
2023-03-03T19:33:22.032Z,41.34
2023-03-03T19:35:55.924Z,41.46
2023-03-03T19:38:26.065Z,41.24
2023-03-03T19:41:02.426Z,41.42
2023-03-03T19:43:32.533Z,41.75
2023-03-03T19:46:14.255Z,41.45
2023-03-03T19:49:04.988Z,41.44
2023-03-03T19:52:13.567Z,41.78
2023-03-03T19:55:01.934Z,41.56
2023-03-03T19:57:44.327Z,41.54
2023-03-03T20:00:23.157Z,41.48
2023-03-03T20:02:56.153Z,41.27
2023-03-03T20:05:26.363Z,41.27
2023-03-03T20:08:10.789Z,41.45
2023-03-03T20:10:45.966Z,41.27
2023-03-03T20:13:16.097Z,41.79
2023-03-03T20:16:04.601Z,41.47
2023-03-03T20:18:55.238Z,41.40
2023-03-03T20:21:35.606Z,41.54
2023-03-03T20:24:18.754Z,41.37
2023-03-03T20:27:04.124Z,41.47
2023-03-03T20:29:49.446Z,41.87
2023-03-03T20:32:31.658Z,41.57
2023-03-03T20:35:04.571Z,41.65
2023-03-03T20:37:46.061Z,41.40
2023-03-03T20:40:40.812Z,41.47
2023-03-03T20:43:19.675Z,41.24
2023-03-03T20:46:09.302Z,41.51
2023-03-03T20:48:39.970Z,41.21
2023-03-03T20:51:12.919Z,41.58
2023-03-03T20:53:53.343Z,43.34
2023-03-03T20:56:35.577Z,45.17
2023-03-03T20:59:06.087Z,46.31
2023-03-03T21:01:54.692Z,47.80
2023-03-03T21:04:29.011Z,47.07
2023-03-03T21:06:59.518Z,46.08
2023-03-03T21:09:40.468Z,45.31
2023-03-03T21:12:27.757Z,44.86
2023-03-03T21:15:02.271Z,44.12
2023-03-03T21:17:35.507Z,43.69
2023-03-03T21:20:23.753Z,43.38
2023-03-03T21:22:54.116Z,42.91
2023-03-03T21:25:42.810Z,42.69
2023-03-03T21:28:19.363Z,42.71
2023-03-03T21:31:09.465Z,42.30
2023-03-03T21:33:42.505Z,42.05
2023-03-03T21:36:14.249Z,42.79
2023-03-03T21:38:45.279Z,44.47
2023-03-03T21:41:16.617Z,46.01
2023-03-03T21:43:51.763Z,47.58
2023-03-03T21:46:23.537Z,48.67
2023-03-03T21:48:53.935Z,48.73
2023-03-03T21:51:25.891Z,47.19
2023-03-03T21:53:56.860Z,46.76
2023-03-03T21:56:27.068Z,45.92
2023-03-03T21:58:57.180Z,45.08
2023-03-03T22:01:27.501Z,44.60
2023-03-03T22:03:57.736Z,44.23
2023-03-03T22:06:28.074Z,43.72
2023-03-03T22:08:58.354Z,43.79
2023-03-03T22:11:28.500Z,43.84
2023-03-03T22:13:59.176Z,43.30
2023-03-03T22:16:29.329Z,44.03
2023-03-03T22:19:01.705Z,45.54
2023-03-03T22:21:33.203Z,47.29
2023-03-03T22:24:03.531Z,48.47
2023-03-03T22:26:33.810Z,49.62
2023-03-03T22:29:03.988Z,50.19
2023-03-03T22:31:35.165Z,50.42
2023-03-03T22:34:06.093Z,49.21
2023-03-03T22:36:36.471Z,47.91
2023-03-03T22:39:06.672Z,46.86
2023-03-03T22:41:36.845Z,46.22
2023-03-03T22:44:07.119Z,45.74
2023-03-03T22:46:37.253Z,45.02
2023-03-03T22:49:07.404Z,46.39
2023-03-03T22:51:37.566Z,48.32
2023-03-03T22:54:07.828Z,49.63
2023-03-03T22:56:38.241Z,50.77
2023-03-03T22:59:08.468Z,51.62
2023-03-03T23:01:38.671Z,52.77
2023-03-03T23:04:09.084Z,52.91
2023-03-03T23:06:40.615Z,52.75
2023-03-03T23:09:13.915Z,52.82
2023-03-03T23:11:44.076Z,52.44
2023-03-03T23:14:14.425Z,52.51
2023-03-03T23:16:46.874Z,52.47
2023-03-03T23:19:17.210Z,52.42
2023-03-03T23:21:47.534Z,52.08
2023-03-03T23:24:17.708Z,52.25
2023-03-03T23:26:48.110Z,52.37
2023-03-03T23:29:18.291Z,52.20
2023-03-03T23:31:48.594Z,52.21
2023-03-03T23:34:18.892Z,51.83
2023-03-03T23:36:49.140Z,51.75
2023-03-03T23:39:19.509Z,51.94
2023-03-03T23:41:50.038Z,52.05
2023-03-03T23:44:20.310Z,52.07
2023-03-03T23:46:50.587Z,52.52
2023-03-03T23:49:20.905Z,53.68
2023-03-03T23:51:51.205Z,54.62
2023-03-03T23:54:21.432Z,55.34
2023-03-03T23:56:51.665Z,55.70
2023-03-03T23:59:22.452Z,55.80
